sensor_id;sensor_type;location;lat;lon;timestamp;pressure;altitude;pressure_sealevel;temperature;humidity
65329;BME280;51941;52.210;5.158;2023-04-08T00:01:08;102253.72;;;9.33;100.00
65329;BME280;51941;52.210;5.158;2023-04-08T00:03:35;102259.84;;;9.33;100.00
65329;BME280;51941;52.210;5.158;2023-04-08T00:06:01;102252.91;;;9.32;100.00
65329;BME280;51941;52.210;5.158;2023-04-08T00:08:29;102256.38;;;9.33;100.00
65329;BME280;51941;52.210;5.158;2023-04-08T00:10:56;102256.56;;;9.31;100.00
65329;BME280;51941;52.210;5.158;2023-04-08T00:13:22;102251.66;;;9.28;100.00
65329;BME280;51941;52.210;5.158;2023-04-08T00:15:51;102265.88;;;9.27;100.00
65329;BME280;51941;52.210;5.158;2023-04-08T00:18:17;102255.22;;;9.21;100.00
65329;BME280;51941;52.210;5.158;2023-04-08T00:20:44;102258.06;;;9.19;100.00
65329;BME280;51941;52.210;5.158;2023-04-08T00:23:11;102258.59;;;9.14;100.00
65329;BME280;51941;52.210;5.158;2023-04-08T00:25:37;102256.06;;;9.06;100.00
65329;BME280;51941;52.210;5.158;2023-04-08T00:28:04;102254.59;;;9.04;100.00
65329;BME280;51941;52.210;5.158;2023-04-08T00:30:31;102257.16;;;8.97;100.00
65329;BME280;51941;52.210;5.158;2023-04-08T00:32:59;102253.28;;;8.93;100.00
65329;BME280;51941;52.210;5.158;2023-04-08T00:35:26;102248.06;;;8.85;100.00
65329;BME280;51941;52.210;5.158;2023-04-08T00:37:52;102256.63;;;8.87;100.00
65329;BME280;51941;52.210;5.158;2023-04-08T00:40:19;102256.19;;;8.84;100.00
65329;BME280;51941;52.210;5.158;2023-04-08T00:42:46;102257.56;;;8.79;100.00
65329;BME280;51941;52.210;5.158;2023-04-08T00:45:13;102256.09;;;8.77;100.00
65329;BME280;51941;52.210;5.158;2023-04-08T00:47:40;102257.31;;;8.74;100.00
65329;BME280;51941;52.210;5.158;2023-04-08T00:50:09;102268.69;;;8.75;100.00
65329;BME280;51941;52.210;5.158;2023-04-08T00:52:36;102241.84;;;8.57;100.00
65329;BME280;51941;52.210;5.158;2023-04-08T00:55:04;102276.69;;;8.67;100.00
65329;BME280;51941;52.210;5.158;2023-04-08T00:57:31;102273.25;;;8.66;100.00
65329;BME280;51941;52.210;5.158;2023-04-08T00:59:58;102265.31;;;8.66;100.00
65329;BME280;51941;52.210;5.158;2023-04-08T01:02:30;102268.41;;;8.70;100.00
65329;BME280;51941;52.210;5.158;2023-04-08T01:05:03;102273.25;;;8.66;100.00
65329;BME280;51941;52.210;5.158;2023-04-08T01:07:33;102274.41;;;8.64;100.00
65329;BME280;51941;52.210;5.158;2023-04-08T01:10:02;102268.66;;;8.60;100.00
65329;BME280;51941;52.210;5.158;2023-04-08T01:12:32;102270.88;;;8.57;100.00
65329;BME280;51941;52.210;5.158;2023-04-08T01:15:04;102271.88;;;8.56;100.00
65329;BME280;51941;52.210;5.158;2023-04-08T01:17:32;102267.59;;;8.55;100.00
65329;BME280;51941;52.210;5.158;2023-04-08T01:20:01;102272.03;;;8.54;100.00
65329;BME280;51941;52.210;5.158;2023-04-08T01:22:39;102275.03;;;8.51;100.00
65329;BME280;51941;52.210;5.158;2023-04-08T01:25:13;102262.31;;;8.40;100.00
65329;BME280;51941;52.210;5.158;2023-04-08T01:27:44;102278.59;;;8.43;100.00
65329;BME280;51941;52.210;5.158;2023-04-08T01:30:13;102278.22;;;8.47;100.00
65329;BME280;51941;52.210;5.158;2023-04-08T01:32:42;102280.53;;;8.50;100.00
65329;BME280;51941;52.210;5.158;2023-04-08T01:35:09;102260.38;;;8.34;100.00
65329;BME280;51941;52.210;5.158;2023-04-08T01:37:37;102285.25;;;8.39;100.00
65329;BME280;51941;52.210;5.158;2023-04-08T01:40:07;102277.50;;;8.38;100.00
65329;BME280;51941;52.210;5.158;2023-04-08T01:42:37;102279.50;;;8.36;100.00
65329;BME280;51941;52.210;5.158;2023-04-08T01:45:06;102276.59;;;8.31;100.00
65329;BME280;51941;52.210;5.158;2023-04-08T01:47:36;102283.38;;;8.25;100.00
65329;BME280;51941;52.210;5.158;2023-04-08T01:50:05;102284.03;;;8.27;100.00
65329;BME280;51941;52.210;5.158;2023-04-08T01:52:34;102278.59;;;8.29;100.00
65329;BME280;51941;52.210;5.158;2023-04-08T01:55:00;102278.03;;;8.33;100.00
65329;BME280;51941;52.210;5.158;2023-04-08T01:57:31;102281.47;;;8.34;100.00
65329;BME280;51941;52.210;5.158;2023-04-08T02:00:01;102283.59;;;8.38;100.00
65329;BME280;51941;52.210;5.158;2023-04-08T02:02:46;102286.88;;;8.40;100.00
65329;BME280;51941;52.210;5.158;2023-04-08T02:05:14;102282.88;;;8.44;100.00
65329;BME280;51941;52.210;5.158;2023-04-08T02:07:40;102290.44;;;8.48;100.00
65329;BME280;51941;52.210;5.158;2023-04-08T02:10:08;102291.50;;;8.53;100.00
65329;BME280;51941;52.210;5.158;2023-04-08T02:12:35;102288.53;;;8.56;100.00
65329;BME280;51941;52.210;5.158;2023-04-08T02:15:08;102289.97;;;8.59;100.00
65329;BME280;51941;52.210;5.158;2023-04-08T02:17:38;102288.59;;;8.63;100.00
65329;BME280;51941;52.210;5.158;2023-04-08T02:20:09;102292.72;;;8.65;100.00
65329;BME280;51941;52.210;5.158;2023-04-08T02:22:41;102288.06;;;8.67;100.00
65329;BME280;51941;52.210;5.158;2023-04-08T02:25:13;102292.31;;;8.68;100.00
65329;BME280;51941;52.210;5.158;2023-04-08T02:27:41;102269.88;;;8.58;100.00
65329;BME280;51941;52.210;5.158;2023-04-08T02:30:10;102288.50;;;8.71;100.00
65329;BME280;51941;52.210;5.158;2023-04-08T02:32:38;102290.16;;;8.72;100.00
65329;BME280;51941;52.210;5.158;2023-04-08T02:35:05;102299.53;;;8.74;100.00
65329;BME280;51941;52.210;5.158;2023-04-08T02:37:34;102291.63;;;8.74;100.00
65329;BME280;51941;52.210;5.158;2023-04-08T02:40:01;102295.09;;;8.75;100.00
65329;BME280;51941;52.210;5.158;2023-04-08T02:42:28;102301.78;;;8.77;100.00
65329;BME280;51941;52.210;5.158;2023-04-08T02:44:56;102301.19;;;8.75;100.00
65329;BME280;51941;52.210;5.158;2023-04-08T02:47:22;102303.81;;;8.75;100.00
65329;BME280;51941;52.210;5.158;2023-04-08T02:49:50;102289.25;;;8.65;100.00
65329;BME280;51941;52.210;5.158;2023-04-08T02:52:18;102307.53;;;8.81;100.00
65329;BME280;51941;52.210;5.158;2023-04-08T02:54:46;102307.06;;;8.77;100.00
65329;BME280;51941;52.210;5.158;2023-04-08T02:57:13;102313.56;;;8.75;100.00
65329;BME280;51941;52.210;5.158;2023-04-08T02:59:41;102304.44;;;8.77;100.00
65329;BME280;51941;52.210;5.158;2023-04-08T03:02:08;102307.47;;;8.74;100.00
65329;BME280;51941;52.210;5.158;2023-04-08T03:04:34;102313.56;;;8.75;100.00
65329;BME280;51941;52.210;5.158;2023-04-08T03:07:01;102305.06;;;8.79;100.00
65329;BME280;51941;52.210;5.158;2023-04-08T03:09:28;102269.06;;;8.57;100.00
65329;BME280;51941;52.210;5.158;2023-04-08T03:11:56;102306.06;;;8.78;100.00
65329;BME280;51941;52.210;5.158;2023-04-08T03:14:22;102315.00;;;8.77;100.00
65329;BME280;51941;52.210;5.158;2023-04-08T03:16:49;102294.97;;;8.54;100.00
65329;BME280;51941;52.210;5.158;2023-04-08T03:19:16;102311.00;;;8.67;100.00
65329;BME280;51941;52.210;5.158;2023-04-08T03:21:42;102315.34;;;8.60;100.00
65329;BME280;51941;52.210;5.158;2023-04-08T03:24:09;102282.22;;;8.42;100.00
65329;BME280;51941;52.210;5.158;2023-04-08T03:26:36;102305.78;;;8.59;100.00
65329;BME280;51941;52.210;5.158;2023-04-08T03:29:04;102309.25;;;8.59;100.00
65329;BME280;51941;52.210;5.158;2023-04-08T03:31:31;102316.19;;;8.60;100.00
65329;BME280;51941;52.210;5.158;2023-04-08T03:33:58;102315.00;;;8.63;100.00
65329;BME280;51941;52.210;5.158;2023-04-08T03:36:24;102320.09;;;8.64;100.00
65329;BME280;51941;52.210;5.158;2023-04-08T03:38:51;102316.47;;;8.65;100.00
65329;BME280;51941;52.210;5.158;2023-04-08T03:41:18;102316.28;;;8.67;100.00
65329;BME280;51941;52.210;5.158;2023-04-08T03:43:45;102324.75;;;8.62;100.00
65329;BME280;51941;52.210;5.158;2023-04-08T03:46:13;102321.47;;;8.60;100.00
65329;BME280;51941;52.210;5.158;2023-04-08T03:48:40;102323.81;;;8.55;100.00
65329;BME280;51941;52.210;5.158;2023-04-08T03:51:06;102322.53;;;8.51;100.00
65329;BME280;51941;52.210;5.158;2023-04-08T03:53:33;102320.47;;;8.47;100.00
65329;BME280;51941;52.210;5.158;2023-04-08T03:56:00;102298.97;;;8.35;100.00
65329;BME280;51941;52.210;5.158;2023-04-08T03:58:27;102328.81;;;8.50;100.00
65329;BME280;51941;52.210;5.158;2023-04-08T04:00:54;102329.03;;;8.49;100.00
65329;BME280;51941;52.210;5.158;2023-04-08T04:03:22;102336.56;;;8.52;100.00
65329;BME280;51941;52.210;5.158;2023-04-08T04:05:49;102331.28;;;8.52;100.00
65329;BME280;51941;52.210;5.158;2023-04-08T04:08:16;102333.66;;;8.47;100.00
65329;BME280;51941;52.210;5.158;2023-04-08T04:10:42;102329.53;;;8.44;100.00
65329;BME280;51941;52.210;5.158;2023-04-08T04:13:09;102333.19;;;8.43;100.00
65329;BME280;51941;52.210;5.158;2023-04-08T04:15:37;102311.97;;;8.22;100.00
65329;BME280;51941;52.210;5.158;2023-04-08T04:18:04;102342.63;;;8.37;100.00
65329;BME280;51941;52.210;5.158;2023-04-08T04:20:32;102327.78;;;8.22;100.00
65329;BME280;51941;52.210;5.158;2023-04-08T04:22:58;102338.94;;;8.24;100.00
65329;BME280;51941;52.210;5.158;2023-04-08T04:25:25;102315.16;;;7.94;100.00
65329;BME280;51941;52.210;5.158;2023-04-08T04:27:52;102353.09;;;8.08;100.00
65329;BME280;51941;52.210;5.158;2023-04-08T04:30:18;102347.44;;;7.96;100.00
65329;BME280;51941;52.210;5.158;2023-04-08T04:32:46;102355.28;;;7.82;100.00
65329;BME280;51941;52.210;5.158;2023-04-08T04:35:12;102359.00;;;7.64;100.00
65329;BME280;51941;52.210;5.158;2023-04-08T04:37:40;102350.53;;;7.46;100.00
65329;BME280;51941;52.210;5.158;2023-04-08T04:40:07;102367.91;;;7.33;100.00
65329;BME280;51941;52.210;5.158;2023-04-08T04:42:34;102368.13;;;7.15;100.00
65329;BME280;51941;52.210;5.158;2023-04-08T04:45:01;102360.13;;;7.00;100.00
65329;BME280;51941;52.210;5.158;2023-04-08T04:47:28;102361.63;;;6.86;100.00
65329;BME280;51941;52.210;5.158;2023-04-08T04:49:56;102357.88;;;6.73;100.00
65329;BME280;51941;52.210;5.158;2023-04-08T04:52:23;102368.44;;;6.65;100.00
65329;BME280;51941;52.210;5.158;2023-04-08T04:54:51;102370.25;;;6.56;100.00
65329;BME280;51941;52.210;5.158;2023-04-08T04:57:18;102372.69;;;6.49;100.00
65329;BME280;51941;52.210;5.158;2023-04-08T04:59:45;102345.59;;;6.25;100.00
65329;BME280;51941;52.210;5.158;2023-04-08T05:02:11;102372.72;;;6.33;100.00
65329;BME280;51941;52.210;5.158;2023-04-08T05:04:38;102379.13;;;6.23;100.00
65329;BME280;51941;52.210;5.158;2023-04-08T05:07:05;102380.09;;;6.22;100.00
65329;BME280;51941;52.210;5.158;2023-04-08T05:09:31;102377.97;;;6.17;100.00
65329;BME280;51941;52.210;5.158;2023-04-08T05:11:59;102376.19;;;6.09;100.00
65329;BME280;51941;52.210;5.158;2023-04-08T05:14:27;102379.28;;;6.05;100.00
65329;BME280;51941;52.210;5.158;2023-04-08T05:16:54;102386.84;;;6.00;100.00
65329;BME280;51941;52.210;5.158;2023-04-08T05:19:21;102388.81;;;5.98;100.00
65329;BME280;51941;52.210;5.158;2023-04-08T05:21:48;102397.81;;;5.95;100.00
65329;BME280;51941;52.210;5.158;2023-04-08T05:24:15;102405.38;;;5.90;100.00
65329;BME280;51941;52.210;5.158;2023-04-08T05:26:41;102370.03;;;5.68;100.00
65329;BME280;51941;52.210;5.158;2023-04-08T05:29:09;102399.81;;;5.85;100.00
65329;BME280;51941;52.210;5.158;2023-04-08T05:31:36;102379.22;;;5.72;100.00
65329;BME280;51941;52.210;5.158;2023-04-08T05:34:03;102399.28;;;5.82;100.00
65329;BME280;51941;52.210;5.158;2023-04-08T05:36:29;102405.38;;;5.82;100.00
65329;BME280;51941;52.210;5.158;2023-04-08T05:38:56;102404.69;;;5.80;100.00
65329;BME280;51941;52.210;5.158;2023-04-08T05:41:23;102409.28;;;5.78;100.00
65329;BME280;51941;52.210;5.158;2023-04-08T05:43:50;102412.13;;;5.85;100.00
65329;BME280;51941;52.210;5.158;2023-04-08T05:46:18;102409.66;;;5.91;100.00
65329;BME280;51941;52.210;5.158;2023-04-08T05:48:45;102407.53;;;5.95;100.00
65329;BME280;51941;52.210;5.158;2023-04-08T05:51:15;102422.97;;;5.98;100.00
65329;BME280;51941;52.210;5.158;2023-04-08T05:53:44;102424.78;;;5.97;100.00
65329;BME280;51941;52.210;5.158;2023-04-08T05:56:11;102432.34;;;6.00;100.00
65329;BME280;51941;52.210;5.158;2023-04-08T05:58:38;102396.50;;;5.83;100.00
65329;BME280;51941;52.210;5.158;2023-04-08T06:01:04;102437.28;;;6.03;100.00
65329;BME280;51941;52.210;5.158;2023-04-08T06:03:33;102433.16;;;6.01;100.00
65329;BME280;51941;52.210;5.158;2023-04-08T06:06:00;102429.41;;;6.03;100.00
65329;BME280;51941;52.210;5.158;2023-04-08T06:08:26;102426.78;;;6.03;100.00
65329;BME280;51941;52.210;5.158;2023-04-08T06:10:53;102435.16;;;6.07;100.00
65329;BME280;51941;52.210;5.158;2023-04-08T06:13:19;102434.47;;;6.05;100.00
65329;BME280;51941;52.210;5.158;2023-04-08T06:15:46;102435.00;;;6.08;100.00
65329;BME280;51941;52.210;5.158;2023-04-08T06:18:14;102423.81;;;6.06;100.00
65329;BME280;51941;52.210;5.158;2023-04-08T06:20:42;102441.91;;;6.17;100.00
65329;BME280;51941;52.210;5.158;2023-04-08T06:23:10;102441.75;;;6.35;100.00
65329;BME280;51941;52.210;5.158;2023-04-08T06:25:37;102442.41;;;6.86;100.00
65329;BME280;51941;52.210;5.158;2023-04-08T06:28:04;102443.03;;;7.59;100.00
65329;BME280;51941;52.210;5.158;2023-04-08T06:30:30;102441.03;;;8.23;100.00
65329;BME280;51941;52.210;5.158;2023-04-08T06:32:57;102451.34;;;8.93;100.00
65329;BME280;51941;52.210;5.158;2023-04-08T06:35:24;102456.75;;;9.44;99.30
65329;BME280;51941;52.210;5.158;2023-04-08T06:37:53;102449.44;;;9.61;95.56
65329;BME280;51941;52.210;5.158;2023-04-08T06:40:19;102470.34;;;9.91;92.14
65329;BME280;51941;52.210;5.158;2023-04-08T06:42:46;102453.16;;;10.02;89.56
65329;BME280;51941;52.210;5.158;2023-04-08T06:45:20;102471.09;;;10.43;86.50
65329;BME280;51941;52.210;5.158;2023-04-08T06:47:47;102468.09;;;10.74;83.69
65329;BME280;51941;52.210;5.158;2023-04-08T06:50:13;102474.63;;;10.99;81.18
65329;BME280;51941;52.210;5.158;2023-04-08T06:52:40;102474.44;;;11.00;80.26
65329;BME280;51941;52.210;5.158;2023-04-08T06:55:09;102476.31;;;11.06;77.80
65329;BME280;51941;52.210;5.158;2023-04-08T06:57:35;102477.81;;;11.16;77.87
65329;BME280;51941;52.210;5.158;2023-04-08T07:00:03;102475.63;;;11.26;75.33
65329;BME280;51941;52.210;5.158;2023-04-08T07:02:31;102481.19;;;11.31;73.91
65329;BME280;51941;52.210;5.158;2023-04-08T07:04:57;102478.72;;;11.29;73.45
65329;BME280;51941;52.210;5.158;2023-04-08T07:07:24;102488.19;;;11.45;73.18
65329;BME280;51941;52.210;5.158;2023-04-08T07:09:51;102487.84;;;11.61;72.03
65329;BME280;51941;52.210;5.158;2023-04-08T07:12:19;102490.78;;;11.73;68.93
65329;BME280;51941;52.210;5.158;2023-04-08T07:14:46;102498.38;;;11.89;69.45
65329;BME280;51941;52.210;5.158;2023-04-08T07:17:12;102495.97;;;12.01;67.23
65329;BME280;51941;52.210;5.158;2023-04-08T07:19:39;102476.97;;;12.04;66.30
65329;BME280;51941;52.210;5.158;2023-04-08T07:22:06;102500.97;;;12.30;66.38
65329;BME280;51941;52.210;5.158;2023-04-08T07:24:32;102508.75;;;12.32;64.41
65329;BME280;51941;52.210;5.158;2023-04-08T07:26:59;102495.03;;;12.28;64.56
65329;BME280;51941;52.210;5.158;2023-04-08T07:29:27;102495.22;;;12.13;64.86
65329;BME280;51941;52.210;5.158;2023-04-08T07:31:54;102506.09;;;12.25;64.77
65329;BME280;51941;52.210;5.158;2023-04-08T07:34:21;102513.44;;;12.30;64.19
65329;BME280;51941;52.210;5.158;2023-04-08T07:36:47;102506.28;;;12.30;64.60
65329;BME280;51941;52.210;5.158;2023-04-08T07:39:14;102513.03;;;12.46;64.08
65329;BME280;51941;52.210;5.158;2023-04-08T07:41:41;102515.09;;;12.64;63.71
65329;BME280;51941;52.210;5.158;2023-04-08T07:44:07;102511.84;;;12.81;63.02
65329;BME280;51941;52.210;5.158;2023-04-08T07:46:37;102515.53;;;13.00;61.12
65329;BME280;51941;52.210;5.158;2023-04-08T07:49:03;102523.06;;;13.16;61.09
65329;BME280;51941;52.210;5.158;2023-04-08T07:51:30;102522.91;;;13.05;60.67
65329;BME280;51941;52.210;5.158;2023-04-08T07:53:57;102528.00;;;12.86;59.95
65329;BME280;51941;52.210;5.158;2023-04-08T07:56:27;102520.06;;;12.80;60.71
65329;BME280;51941;52.210;5.158;2023-04-08T07:58:53;102536.38;;;12.90;60.27
65329;BME280;51941;52.210;5.158;2023-04-08T08:01:22;102533.31;;;13.00;59.89
65329;BME280;51941;52.210;5.158;2023-04-08T08:03:51;102512.88;;;12.87;60.43
65329;BME280;51941;52.210;5.158;2023-04-08T08:06:17;102528.44;;;12.97;61.67
65329;BME280;51941;52.210;5.158;2023-04-08T08:08:45;102534.16;;;13.07;59.86
65329;BME280;51941;52.210;5.158;2023-04-08T08:11:11;102538.22;;;13.03;60.84
65329;BME280;51941;52.210;5.158;2023-04-08T08:13:38;102522.88;;;13.11;60.25
65329;BME280;51941;52.210;5.158;2023-04-08T08:16:05;102532.06;;;13.28;59.41
65329;BME280;51941;52.210;5.158;2023-04-08T08:18:33;102536.16;;;13.31;58.46
65329;BME280;51941;52.210;5.158;2023-04-08T08:21:02;102537.59;;;13.34;58.52
65329;BME280;51941;52.210;5.158;2023-04-08T08:23:28;102542.72;;;13.22;58.36
65329;BME280;51941;52.210;5.158;2023-04-08T08:25:58;102531.50;;;13.07;57.62
65329;BME280;51941;52.210;5.158;2023-04-08T08:28:26;102530.88;;;12.78;58.67
65329;BME280;51941;52.210;5.158;2023-04-08T08:30:52;102534.94;;;12.61;61.14
65329;BME280;51941;52.210;5.158;2023-04-08T08:33:19;102527.94;;;12.27;61.88
65329;BME280;51941;52.210;5.158;2023-04-08T08:35:46;102523.22;;;12.16;63.05
65329;BME280;51941;52.210;5.158;2023-04-08T08:38:14;102541.47;;;11.98;64.27
65329;BME280;51941;52.210;5.158;2023-04-08T08:40:42;102537.75;;;11.86;65.92
65329;BME280;51941;52.210;5.158;2023-04-08T08:43:09;102542.47;;;11.84;65.70
65329;BME280;51941;52.210;5.158;2023-04-08T08:45:38;102543.22;;;11.77;66.99
65329;BME280;51941;52.210;5.158;2023-04-08T08:48:05;102545.25;;;11.75;68.32
65329;BME280;51941;52.210;5.158;2023-04-08T08:50:32;102544.22;;;11.76;67.64
65329;BME280;51941;52.210;5.158;2023-04-08T08:52:59;102542.81;;;11.74;68.44
65329;BME280;51941;52.210;5.158;2023-04-08T08:55:29;102548.72;;;11.76;69.17
65329;BME280;51941;52.210;5.158;2023-04-08T08:58:01;102551.63;;;11.81;69.61
65329;BME280;51941;52.210;5.158;2023-04-08T09:00:31;102530.75;;;11.71;69.96
65329;BME280;51941;52.210;5.158;2023-04-08T09:03:13;102560.56;;;11.73;72.34
65329;BME280;51941;52.210;5.158;2023-04-08T09:05:46;102537.06;;;11.70;69.15
65329;BME280;51941;52.210;5.158;2023-04-08T09:08:22;102540.50;;;11.64;67.50
65329;BME280;51941;52.210;5.158;2023-04-08T09:10:50;102563.78;;;11.69;65.78
65329;BME280;51941;52.210;5.158;2023-04-08T09:13:17;102556.47;;;11.71;66.70
65329;BME280;51941;52.210;5.158;2023-04-08T09:16:02;102560.16;;;11.76;66.47
65329;BME280;51941;52.210;5.158;2023-04-08T09:18:29;102565.50;;;11.83;66.74
65329;BME280;51941;52.210;5.158;2023-04-08T09:20:58;102540.00;;;11.82;66.51
65329;BME280;51941;52.210;5.158;2023-04-08T09:23:37;102564.97;;;12.01;65.97
65329;BME280;51941;52.210;5.158;2023-04-08T09:26:08;102563.75;;;12.03;65.91
65329;BME280;51941;52.210;5.158;2023-04-08T09:28:35;102562.97;;;12.09;66.49
65329;BME280;51941;52.210;5.158;2023-04-08T09:31:17;102564.06;;;12.22;66.22
65329;BME280;51941;52.210;5.158;2023-04-08T09:33:44;102574.91;;;12.27;66.64
65329;BME280;51941;52.210;5.158;2023-04-08T09:36:12;102565.94;;;12.28;65.92
65329;BME280;51941;52.210;5.158;2023-04-08T09:38:39;102573.69;;;12.29;66.54
65329;BME280;51941;52.210;5.158;2023-04-08T09:41:08;102498.13;;;11.84;68.01
65329;BME280;51941;52.210;5.158;2023-04-08T09:43:41;102569.03;;;12.44;67.73
65329;BME280;51941;52.210;5.158;2023-04-08T09:46:14;102572.91;;;12.48;68.84
65329;BME280;51941;52.210;5.158;2023-04-08T09:48:47;102580.50;;;12.51;66.62
65329;BME280;51941;52.210;5.158;2023-04-08T09:51:16;102576.19;;;12.44;67.47
65329;BME280;51941;52.210;5.158;2023-04-08T09:53:46;102575.81;;;12.53;67.26
65329;BME280;51941;52.210;5.158;2023-04-08T09:56:16;102576.81;;;12.52;65.80
65329;BME280;51941;52.210;5.158;2023-04-08T09:58:50;102575.59;;;12.55;65.41
65329;BME280;51941;52.210;5.158;2023-04-08T10:01:22;102576.63;;;12.54;65.55
65329;BME280;51941;52.210;5.158;2023-04-08T10:03:53;102577.00;;;12.44;66.63
65329;BME280;51941;52.210;5.158;2023-04-08T10:06:21;102579.28;;;12.54;66.18
65329;BME280;51941;52.210;5.158;2023-04-08T10:08:53;102585.38;;;12.54;65.24
65329;BME280;51941;52.210;5.158;2023-04-08T10:11:22;102561.66;;;12.46;63.94
65329;BME280;51941;52.210;5.158;2023-04-08T10:13:49;102572.72;;;12.56;65.06
65329;BME280;51941;52.210;5.158;2023-04-08T10:16:23;102571.09;;;12.55;64.97
65329;BME280;51941;52.210;5.158;2023-04-08T10:18:52;102569.50;;;12.61;64.52
65329;BME280;51941;52.210;5.158;2023-04-08T10:21:39;102569.28;;;12.69;61.89
65329;BME280;51941;52.210;5.158;2023-04-08T10:24:08;102576.06;;;12.72;58.63
65329;BME280;51941;52.210;5.158;2023-04-08T10:26:41;102571.53;;;12.72;58.21
65329;BME280;51941;52.210;5.158;2023-04-08T10:29:32;102575.63;;;12.75;56.68
65329;BME280;51941;52.210;5.158;2023-04-08T10:31:59;102570.53;;;12.86;57.92
65329;BME280;51941;52.210;5.158;2023-04-08T10:34:26;102563.81;;;12.97;58.17
65329;BME280;51941;52.210;5.158;2023-04-08T10:36:56;102543.13;;;12.92;57.12
65329;BME280;51941;52.210;5.158;2023-04-08T10:39:27;102557.47;;;12.98;53.93
65329;BME280;51941;52.210;5.158;2023-04-08T10:41:55;102556.63;;;12.91;54.11
65329;BME280;51941;52.210;5.158;2023-04-08T10:44:23;102562.16;;;12.89;55.54
65329;BME280;51941;52.210;5.158;2023-04-08T10:46:51;102547.25;;;12.88;55.04
65329;BME280;51941;52.210;5.158;2023-04-08T10:49:18;102549.06;;;12.94;54.84
65329;BME280;51941;52.210;5.158;2023-04-08T10:51:46;102553.78;;;13.06;55.30
65329;BME280;51941;52.210;5.158;2023-04-08T10:54:14;102546.19;;;13.09;56.54
65329;BME280;51941;52.210;5.158;2023-04-08T10:56:46;102546.22;;;13.16;55.45
65329;BME280;51941;52.210;5.158;2023-04-08T10:59:16;102547.84;;;13.23;55.77
65329;BME280;51941;52.210;5.158;2023-04-08T11:01:52;102549.88;;;13.28;54.85
65329;BME280;51941;52.210;5.158;2023-04-08T11:04:19;102558.47;;;13.30;55.29
65329;BME280;51941;52.210;5.158;2023-04-08T11:06:48;102555.78;;;13.37;55.14
65329;BME280;51941;52.210;5.158;2023-04-08T11:09:16;102547.00;;;13.43;54.79
65329;BME280;51941;52.210;5.158;2023-04-08T11:11:44;102544.97;;;13.45;54.53
65329;BME280;51941;52.210;5.158;2023-04-08T11:14:11;102547.38;;;13.53;54.06
65329;BME280;51941;52.210;5.158;2023-04-08T11:16:39;102549.66;;;13.56;53.74
65329;BME280;51941;52.210;5.158;2023-04-08T11:19:06;102548.81;;;13.62;53.29
65329;BME280;51941;52.210;5.158;2023-04-08T11:21:36;102546.16;;;13.68;52.99
65329;BME280;51941;52.210;5.158;2023-04-08T11:24:08;102529.97;;;13.63;53.79
65329;BME280;51941;52.210;5.158;2023-04-08T11:26:36;102542.19;;;13.78;53.75
65329;BME280;51941;52.210;5.158;2023-04-08T11:29:03;102544.84;;;13.84;53.61
65329;BME280;51941;52.210;5.158;2023-04-08T11:31:31;102547.31;;;13.79;51.73
65329;BME280;51941;52.210;5.158;2023-04-08T11:33:59;102542.44;;;13.76;53.13
65329;BME280;51941;52.210;5.158;2023-04-08T11:36:27;102544.84;;;13.84;53.48
65329;BME280;51941;52.210;5.158;2023-04-08T11:38:54;102531.75;;;13.83;54.20
65329;BME280;51941;52.210;5.158;2023-04-08T11:41:21;102543.19;;;13.90;57.03
65329;BME280;51941;52.210;5.158;2023-04-08T11:43:55;102547.25;;;13.99;56.90
65329;BME280;51941;52.210;5.158;2023-04-08T11:46:22;102538.84;;;14.02;55.77
65329;BME280;51941;52.210;5.158;2023-04-08T11:48:58;102524.19;;;13.86;54.20
65329;BME280;51941;52.210;5.158;2023-04-08T11:51:25;102537.63;;;13.98;53.59
65329;BME280;51941;52.210;5.158;2023-04-08T11:53:53;102547.41;;;14.04;52.64
65329;BME280;51941;52.210;5.158;2023-04-08T11:56:21;102530.16;;;14.13;51.64
65329;BME280;51941;52.210;5.158;2023-04-08T11:58:48;102507.91;;;14.01;51.24
65329;BME280;51941;52.210;5.158;2023-04-08T12:01:15;102547.53;;;14.29;50.92
65329;BME280;51941;52.210;5.158;2023-04-08T12:03:55;102542.97;;;14.36;50.77
65329;BME280;51941;52.210;5.158;2023-04-08T12:06:23;102551.94;;;14.41;50.80
65329;BME280;51941;52.210;5.158;2023-04-08T12:08:52;102548.59;;;14.53;51.33
65329;BME280;51941;52.210;5.158;2023-04-08T12:11:19;102541.28;;;14.41;50.16
65329;BME280;51941;52.210;5.158;2023-04-08T12:13:46;102544.41;;;14.38;49.60
65329;BME280;51941;52.210;5.158;2023-04-08T12:16:14;102556.78;;;14.20;48.90
65329;BME280;51941;52.210;5.158;2023-04-08T12:18:40;102546.31;;;14.25;49.40
65329;BME280;51941;52.210;5.158;2023-04-08T12:21:07;102527.94;;;14.10;49.16
65329;BME280;51941;52.210;5.158;2023-04-08T12:23:35;102552.25;;;14.27;49.49
65329;BME280;51941;52.210;5.158;2023-04-08T12:26:02;102545.06;;;14.27;49.50
65329;BME280;51941;52.210;5.158;2023-04-08T12:28:29;102547.16;;;14.19;51.16
65329;BME280;51941;52.210;5.158;2023-04-08T12:30:56;102541.19;;;14.23;51.28
65329;BME280;51941;52.210;5.158;2023-04-08T12:33:22;102544.25;;;14.27;51.89
65329;BME280;51941;52.210;5.158;2023-04-08T12:35:49;102534.00;;;14.24;51.89
65329;BME280;51941;52.210;5.158;2023-04-08T12:38:16;102552.81;;;14.35;50.95
65329;BME280;51941;52.210;5.158;2023-04-08T12:40:44;102540.47;;;14.41;50.09
65329;BME280;51941;52.210;5.158;2023-04-08T12:43:11;102533.88;;;14.57;49.17
65329;BME280;51941;52.210;5.158;2023-04-08T12:45:38;102543.84;;;14.61;48.54
65329;BME280;51941;52.210;5.158;2023-04-08T12:48:04;102547.50;;;14.67;46.79
65329;BME280;51941;52.210;5.158;2023-04-08T12:50:31;102540.03;;;14.82;45.16
65329;BME280;51941;52.210;5.158;2023-04-08T12:52:57;102538.75;;;14.85;44.19
65329;BME280;51941;52.210;5.158;2023-04-08T12:55:24;102521.22;;;14.95;42.73